Terminal Aerodrome Forecast
Issued by NWS

Home | Current Version | Previous Version | Text Only | Print | Product List | Glossary Off
Versions: 1 2 3 4 5 6 7 8 9 10 11 12 13 14 15 16 17 18

000
FTUS43 KICT 211120
TAFCNU
TAF
KCNU 211120Z 2112/2212 18016G24KT P6SM OVC020
     FM211500 18018G24KT P6SM SCT015 OVC025
     FM212300 19016G24KT P6SM -SHRA VCTS OVC030CB
     FM220200 29010KT 3SM SHRA VCTS OVC025CB
     FM220500 34010KT 6SM SHRA VCTS OVC030CB
     FM220600 33011KT P6SM OVC050=

USA.gov is the U.S. government's official web portal to all federal, state and local government web resources and services.